Time;durP1;ratioP1;P1;durP2;ratioP2;P2;SDS_P1;SDS_P2;PMS_P1;PMS_P2;Temp;Humidity;BMP_temperature;BMP_pressure;BME280_temperature;BME280_humidity;BME280_pressure;Samples;Min_cycle;Max_cycle;Signal;HPM_P1;HPM_P2
2022/11/30 00:00:38;;;;;;;20.73;16.77;;;;;;;;;;5066006;28;20446;-78
2022/11/30 00:03:04;;;;;;;18.05;14.77;;;;;;;;;;5051416;28;20037;-78
2022/11/30 00:05:30;;;;;;;18.45;15.55;;;;;;;;;;5078533;28;20673;-78
2022/11/30 00:07:56;;;;;;;16.02;14.32;;;;;;;;;;5065941;28;20048;-78
2022/11/30 00:10:22;;;;;;;19.23;15.65;;;;;;;;;;5051678;28;20469;-78
2022/11/30 00:12:49;;;;;;;20.38;16.33;;;;;;;;;;5068371;28;20059;-78
2022/11/30 00:15:16;;;;;;;19.70;16.23;;;;;;;;;;5069257;28;20072;-78
2022/11/30 00:17:45;;;;;;;19.60;15.98;;;;;;;;;;5049466;28;20517;-77
2022/11/30 00:20:12;;;;;;;19.92;16.58;;;;;;;;;;5050297;28;20450;-78
2022/11/30 00:22:38;;;;;;;21.73;16.48;;;;;;;;;;5068165;28;20411;-78
2022/11/30 00:25:07;;;;;;;21.40;17.08;;;;;;;;;;5067546;28;20116;-78
2022/11/30 00:27:34;;;;;;;18.25;15.52;;;;;;;;;;5048336;28;20044;-78
2022/11/30 00:30:00;;;;;;;19.38;16.35;;;;;;;;;;5047125;28;20036;-78
2022/11/30 00:32:27;;;;;;;20.65;17.83;;;;;;;;;;5049917;28;20044;-78
2022/11/30 00:34:53;;;;;;;21.88;18.08;;;;;;;;;;5048817;28;20044;-78
2022/11/30 00:37:19;;;;;;;19.90;17.25;;;;;;;;;;5081854;28;20172;-78
2022/11/30 00:39:45;;;;;;;21.05;16.92;;;;;;;;;;5049560;28;20478;-78
2022/11/30 00:42:11;;;;;;;20.25;17.17;;;;;;;;;;5051149;28;20076;-78
2022/11/30 00:44:37;;;;;;;20.70;17.00;;;;;;;;;;5049963;28;20075;-77
2022/11/30 00:47:03;;;;;;;20.25;15.80;;;;;;;;;;5052725;28;20051;-77
2022/11/30 00:49:29;;;;;;;17.45;15.13;;;;;;;;;;5048980;28;20411;-78
2022/11/30 00:51:55;;;;;;;18.08;15.65;;;;;;;;;;5056456;28;20082;-78
2022/11/30 00:54:21;;;;;;;18.42;15.07;;;;;;;;;;5071768;28;20281;-78
2022/11/30 00:56:47;;;;;;;19.33;15.25;;;;;;;;;;5070269;28;20399;-78
2022/11/30 00:59:13;;;;;;;18.73;15.45;;;;;;;;;;5070817;28;20044;-78
2022/11/30 01:01:39;;;;;;;18.55;15.82;;;;;;;;;;5082523;28;20051;-78
2022/11/30 01:04:05;;;;;;;16.88;15.00;;;;;;;;;;5052801;28;20408;-78
2022/11/30 01:06:31;;;;;;;20.95;15.70;;;;;;;;;;5055021;28;20076;-78
2022/11/30 01:08:58;;;;;;;20.15;15.85;;;;;;;;;;5069002;28;20071;-78
2022/11/30 01:11:30;;;;;;;17.63;14.88;;;;;;;;;;5072029;28;20388;-78
2022/11/30 01:13:57;;;;;;;17.03;15.17;;;;;;;;;;5054715;28;20495;-78
2022/11/30 01:16:29;;;;;;;19.73;14.20;;;;;;;;;;5053585;28;20503;-78
2022/11/30 01:18:55;;;;;;;17.70;13.93;;;;;;;;;;5052365;28;20045;-77
2022/11/30 01:21:22;;;;;;;20.38;14.27;;;;;;;;;;5073591;28;20040;-78
2022/11/30 01:23:49;;;;;;;18.52;14.98;;;;;;;;;;5069142;28;20385;-78
2022/11/30 01:26:15;;;;;;;16.80;14.40;;;;;;;;;;5087494;28;20059;-78
2022/11/30 01:28:44;;;;;;;16.73;13.60;;;;;;;;;;5053148;28;20419;-78
2022/11/30 01:31:14;;;;;;;16.42;13.65;;;;;;;;;;5052595;28;20495;-78
2022/11/30 01:33:41;;;;;;;16.83;13.38;;;;;;;;;;5054958;28;20484;-78
2022/11/30 01:36:10;;;;;;;17.30;13.57;;;;;;;;;;5054177;28;20049;-77
2022/11/30 01:38:38;;;;;;;20.05;15.13;;;;;;;;;;5065749;28;20454;-78
2022/11/30 01:41:05;;;;;;;19.20;15.65;;;;;;;;;;5050350;28;20088;-78
2022/11/30 01:43:37;;;;;;;16.80;13.82;;;;;;;;;;5051153;28;20045;-78
2022/11/30 01:46:03;;;;;;;17.10;13.68;;;;;;;;;;5083679;28;20068;-78
2022/11/30 01:48:29;;;;;;;16.27;13.07;;;;;;;;;;5050600;28;20138;-78
2022/11/30 01:50:55;;;;;;;18.30;14.30;;;;;;;;;;5049097;28;20049;-77
2022/11/30 01:53:23;;;;;;;19.27;14.73;;;;;;;;;;5049382;28;20358;-78
2022/11/30 01:55:49;;;;;;;18.73;14.35;;;;;;;;;;5049353;28;20499;-78
2022/11/30 01:58:17;;;;;;;17.40;14.65;;;;;;;;;;5078383;28;20049;-78
2022/11/30 02:00:45;;;;;;;17.85;13.90;;;;;;;;;;5045579;28;20116;-78
2022/11/30 02:03:30;;;;;;;17.98;14.65;;;;;;;;;;5039918;28;20127;-78
2022/11/30 02:05:56;;;;;;;20.90;15.38;;;;;;;;;;5052993;28;20045;-78
2022/11/30 02:08:22;;;;;;;15.57;13.48;;;;;;;;;;5051570;28;20048;-78
2022/11/30 02:10:51;;;;;;;20.77;15.15;;;;;;;;;;5050975;28;20037;-78
2022/11/30 02:13:29;;;;;;;17.40;14.15;;;;;;;;;;5047705;28;20045;-78
2022/11/30 02:16:06;;;;;;;17.40;14.50;;;;;;;;;;5051985;28;20041;-78
2022/11/30 02:18:35;;;;;;;18.75;15.05;;;;;;;;;;5079612;28;20172;-78
2022/11/30 02:21:10;;;;;;;19.58;15.90;;;;;;;;;;5051501;28;20037;-78
2022/11/30 02:23:46;;;;;;;17.48;14.43;;;;;;;;;;5047981;28;20037;-78
2022/11/30 02:26:15;;;;;;;18.23;14.90;;;;;;;;;;5054541;28;20052;-77
2022/11/30 02:29:05;;;;;;;19.27;15.43;;;;;;;;;;5050079;28;20045;-78
2022/11/30 02:31:40;;;;;;;18.00;14.52;;;;;;;;;;5049454;28;20053;-78
2022/11/30 02:34:07;;;;;;;20.40;16.13;;;;;;;;;;5044899;28;20067;-78
2022/11/30 02:36:33;;;;;;;17.77;15.07;;;;;;;;;;5048127;28;20083;-78
2022/11/30 02:38:59;;;;;;;18.40;15.52;;;;;;;;;;5049444;28;20044;-77
2022/11/30 02:41:25;;;;;;;20.63;15.15;;;;;;;;;;5080751;28;20063;-78
2022/11/30 02:43:51;;;;;;;20.65;16.33;;;;;;;;;;5082627;28;20045;-78
2022/11/30 02:46:20;;;;;;;20.40;16.27;;;;;;;;;;5049005;28;20571;-77
2022/11/30 02:48:53;;;;;;;18.42;14.88;;;;;;;;;;5049119;28;20457;-78
2022/11/30 02:51:21;;;;;;;20.10;16.10;;;;;;;;;;5048975;28;20407;-77
2022/11/30 02:53:47;;;;;;;21.25;16.40;;;;;;;;;;5050433;28;20110;-78
2022/11/30 02:56:13;;;;;;;22.02;16.85;;;;;;;;;;5075597;28;20416;-78
2022/11/30 02:58:39;;;;;;;21.80;16.25;;;;;;;;;;5049660;28;20094;-78
2022/11/30 03:01:05;;;;;;;20.05;15.75;;;;;;;;;;5080738;28;20128;-77
2022/11/30 03:03:31;;;;;;;23.67;17.63;;;;;;;;;;5050021;28;20127;-77
2022/11/30 03:05:57;;;;;;;19.83;15.50;;;;;;;;;;5047902;28;20495;-78
2022/11/30 03:08:23;;;;;;;20.42;16.23;;;;;;;;;;5051128;28;20049;-78
2022/11/30 03:10:49;;;;;;;20.83;16.80;;;;;;;;;;5046830;28;20056;-78
2022/11/30 03:13:15;;;;;;;22.92;18.08;;;;;;;;;;5048292;28;20041;-77
2022/11/30 03:15:41;;;;;;;22.27;17.48;;;;;;;;;;5052613;28;20048;-78
2022/11/30 03:18:16;;;;;;;19.15;15.88;;;;;;;;;;5051417;28;20045;-77
2022/11/30 03:20:42;;;;;;;23.00;17.23;;;;;;;;;;5046324;28;20500;-78
2022/11/30 03:23:09;;;;;;;23.67;17.45;;;;;;;;;;5047735;28;20087;-78
2022/11/30 03:25:35;;;;;;;21.25;17.20;;;;;;;;;;5047609;28;20489;-78
2022/11/30 03:28:01;;;;;;;23.58;16.23;;;;;;;;;;5047665;28;20041;-77
2022/11/30 03:30:27;;;;;;;18.80;15.23;;;;;;;;;;5041183;28;20114;-77
2022/11/30 03:32:53;;;;;;;20.42;16.92;;;;;;;;;;5045968;28;20083;-77
2022/11/30 03:35:19;;;;;;;21.30;16.75;;;;;;;;;;5048562;28;20044;-77
2022/11/30 03:37:46;;;;;;;23.65;16.50;;;;;;;;;;5049795;28;20103;-78
2022/11/30 03:40:12;;;;;;;24.83;18.15;;;;;;;;;;5052653;28;20078;-77
2022/11/30 03:42:39;;;;;;;23.02;17.92;;;;;;;;;;5066034;28;20072;-77
2022/11/30 03:45:05;;;;;;;20.30;16.40;;;;;;;;;;5050766;28;20040;-77
2022/11/30 03:47:31;;;;;;;23.98;17.63;;;;;;;;;;5050682;28;20127;-78
2022/11/30 03:49:57;;;;;;;26.60;18.60;;;;;;;;;;5049352;28;20139;-77
2022/11/30 03:52:23;;;;;;;25.98;18.45;;;;;;;;;;5067536;28;20093;-78
2022/11/30 03:54:49;;;;;;;24.60;18.50;;;;;;;;;;5047726;28;20051;-78
2022/11/30 03:57:15;;;;;;;24.67;17.60;;;;;;;;;;5082138;28;20420;-78
2022/11/30 03:59:41;;;;;;;26.48;19.30;;;;;;;;;;5050856;28;20047;-78
2022/11/30 04:02:10;;;;;;;25.02;19.40;;;;;;;;;;5068292;28;20037;-78
2022/11/30 04:04:36;;;;;;;27.23;19.60;;;;;;;;;;5046001;28;20328;-78
2022/11/30 04:07:08;;;;;;;25.42;19.05;;;;;;;;;;5052353;28;20055;-78
2022/11/30 04:09:34;;;;;;;25.40;18.83;;;;;;;;;;5083865;28;20121;-78
2022/11/30 04:12:00;;;;;;;26.55;19.00;;;;;;;;;;5081752;28;20053;-78
2022/11/30 04:14:26;;;;;;;26.27;19.55;;;;;;;;;;5068636;28;20051;-78
2022/11/30 04:16:52;;;;;;;25.95;19.23;;;;;;;;;;5069364;28;20033;-77
2022/11/30 04:19:18;;;;;;;30.33;21.52;;;;;;;;;;5049528;28;20171;-78
2022/11/30 04:21:44;;;;;;;26.77;19.65;;;;;;;;;;5051760;28;20127;-78
2022/11/30 04:24:10;;;;;;;26.05;18.60;;;;;;;;;;5066676;28;20036;-78
2022/11/30 04:26:37;;;;;;;26.80;19.75;;;;;;;;;;5070201;28;20044;-78
2022/11/30 04:29:04;;;;;;;30.17;19.98;;;;;;;;;;5074051;28;20043;-77
2022/11/30 04:31:30;;;;;;;23.08;17.60;;;;;;;;;;5045091;28;20056;-78
2022/11/30 04:33:56;;;;;;;25.92;19.05;;;;;;;;;;5069448;28;20047;-77
2022/11/30 04:36:22;;;;;;;28.30;19.48;;;;;;;;;;5047853;28;20040;-77
2022/11/30 04:38:48;;;;;;;23.75;17.75;;;;;;;;;;5051011;28;20068;-78
2022/11/30 04:41:14;;;;;;;25.77;18.15;;;;;;;;;;5050415;28;20061;-78
2022/11/30 04:43:41;;;;;;;25.70;18.52;;;;;;;;;;5051441;28;20396;-78
2022/11/30 04:46:07;;;;;;;25.90;18.77;;;;;;;;;;5047596;28;20052;-77
2022/11/30 04:48:33;;;;;;;24.00;18.23;;;;;;;;;;5069471;28;20040;-77
2022/11/30 04:51:04;;;;;;;28.23;19.85;;;;;;;;;;5068510;28;20036;-77
2022/11/30 04:53:30;;;;;;;27.02;19.45;;;;;;;;;;5081559;28;20071;-78
2022/11/30 04:55:56;;;;;;;30.05;21.00;;;;;;;;;;5065133;28;20459;-78
2022/11/30 04:58:23;;;;;;;26.65;19.38;;;;;;;;;;5047905;28;20044;-78
2022/11/30 05:00:49;;;;;;;26.30;18.52;;;;;;;;;;5064116;28;21286;-78
2022/11/30 05:03:23;;;;;;;25.02;18.30;;;;;;;;;;5047561;28;20389;-78
2022/11/30 05:05:49;;;;;;;24.05;17.73;;;;;;;;;;5067737;28;20519;-77
2022/11/30 05:08:15;;;;;;;24.02;17.48;;;;;;;;;;5067918;28;20040;-77
2022/11/30 05:10:41;;;;;;;26.77;18.90;;;;;;;;;;5049942;28;20036;-78
2022/11/30 05:13:07;;;;;;;25.00;18.67;;;;;;;;;;5067702;28;20044;-77
2022/11/30 05:15:33;;;;;;;28.52;20.42;;;;;;;;;;5050796;28;20044;-78
2022/11/30 05:18:00;;;;;;;26.98;19.80;;;;;;;;;;5066661;28;20040;-77
2022/11/30 05:20:27;;;;;;;29.10;21.38;;;;;;;;;;5048787;28;20040;-78
2022/11/30 05:22:53;;;;;;;29.73;20.80;;;;;;;;;;5067442;28;20385;-77
2022/11/30 05:25:19;;;;;;;26.90;20.27;;;;;;;;;;5067949;28;20047;-78
2022/11/30 05:27:45;;;;;;;29.05;20.13;;;;;;;;;;5070360;28;20051;-78
2022/11/30 05:30:11;;;;;;;24.50;18.33;;;;;;;;;;5046244;28;20048;-77
2022/11/30 05:32:37;;;;;;;28.13;19.30;;;;;;;;;;5048708;28;20055;-78
2022/11/30 05:35:04;;;;;;;30.83;21.90;;;;;;;;;;5048823;28;20045;-77
2022/11/30 05:37:30;;;;;;;31.85;22.17;;;;;;;;;;5070470;28;20052;-77
2022/11/30 05:39:56;;;;;;;31.17;21.95;;;;;;;;;;5071662;28;20135;-77
2022/11/30 05:42:22;;;;;;;29.63;20.30;;;;;;;;;;5052141;28;20051;-78
2022/11/30 05:44:48;;;;;;;35.28;22.60;;;;;;;;;;5047066;28;20041;-77
2022/11/30 05:47:14;;;;;;;30.73;22.38;;;;;;;;;;5050764;28;20067;-78
2022/11/30 05:49:40;;;;;;;34.97;24.02;;;;;;;;;;5051600;28;20044;-77
2022/11/30 05:52:06;;;;;;;36.28;24.50;;;;;;;;;;5070968;28;20033;-77
2022/11/30 05:54:33;;;;;;;36.13;24.50;;;;;;;;;;5049395;28;20048;-78
2022/11/30 05:56:59;;;;;;;40.05;27.15;;;;;;;;;;5069958;28;20041;-77
2022/11/30 05:59:25;;;;;;;36.67;25.42;;;;;;;;;;5051370;28;20048;-77
2022/11/30 06:01:51;;;;;;;34.75;23.48;;;;;;;;;;5047117;28;20040;-78
2022/11/30 06:04:17;;;;;;;36.95;24.50;;;;;;;;;;5046141;28;20052;-78
2022/11/30 06:06:43;;;;;;;37.50;25.30;;;;;;;;;;5072080;28;20056;-78
2022/11/30 06:09:10;;;;;;;36.58;24.67;;;;;;;;;;5050133;28;20135;-78
2022/11/30 06:11:36;;;;;;;35.00;23.90;;;;;;;;;;5069854;28;20431;-78
2022/11/30 06:14:02;;;;;;;38.13;25.08;;;;;;;;;;5053435;28;20063;-78
2022/11/30 06:16:28;;;;;;;34.03;22.77;;;;;;;;;;5052236;28;20049;-78
2022/11/30 06:18:54;;;;;;;33.55;22.40;;;;;;;;;;5048854;28;20071;-77
2022/11/30 06:21:20;;;;;;;30.10;21.52;;;;;;;;;;5083836;28;20485;-78
2022/11/30 06:23:46;;;;;;;33.58;22.35;;;;;;;;;;5071569;28;20040;-78
2022/11/30 06:26:12;;;;;;;36.13;24.60;;;;;;;;;;5050481;28;20491;-78
2022/11/30 06:28:39;;;;;;;37.88;24.63;;;;;;;;;;5052496;28;20079;-78
2022/11/30 06:31:08;;;;;;;37.38;25.20;;;;;;;;;;5053405;28;20040;-77
2022/11/30 06:33:34;;;;;;;38.17;25.77;;;;;;;;;;5066171;28;20507;-77
2022/11/30 06:36:00;;;;;;;33.90;23.15;;;;;;;;;;5070532;28;20036;-77
2022/11/30 06:38:26;;;;;;;32.85;22.40;;;;;;;;;;5050000;28;20498;-77
2022/11/30 06:40:53;;;;;;;34.50;24.08;;;;;;;;;;5082355;28;20143;-77
2022/11/30 06:43:19;;;;;;;33.80;24.13;;;;;;;;;;5050042;28;20040;-77
2022/11/30 06:45:45;;;;;;;35.72;24.15;;;;;;;;;;5050542;28;20059;-77
2022/11/30 06:48:12;;;;;;;35.95;24.08;;;;;;;;;;5052885;28;20514;-77
2022/11/30 06:50:38;;;;;;;40.53;25.83;;;;;;;;;;5056470;28;20105;-77
2022/11/30 06:53:04;;;;;;;36.40;25.48;;;;;;;;;;5053722;28;20041;-77
2022/11/30 06:55:31;;;;;;;39.50;26.08;;;;;;;;;;5068133;28;20131;-78
2022/11/30 06:58:05;;;;;;;39.47;25.85;;;;;;;;;;5066707;28;20502;-77
2022/11/30 07:00:31;;;;;;;37.35;25.92;;;;;;;;;;5068071;28;20052;-77
2022/11/30 07:02:56;;;;;;;35.15;23.58;;;;;;;;;;5067281;28;20098;-76
2022/11/30 07:05:23;;;;;;;40.80;26.95;;;;;;;;;;5049866;28;20053;-77
2022/11/30 07:07:49;;;;;;;41.75;28.75;;;;;;;;;;5085056;28;20082;-77
2022/11/30 07:10:17;;;;;;;42.78;28.63;;;;;;;;;;5051489;28;20060;-78
2022/11/30 07:12:44;;;;;;;40.50;28.58;;;;;;;;;;5069244;28;20037;-77
2022/11/30 07:15:10;;;;;;;43.25;28.67;;;;;;;;;;5067579;28;20041;-77
2022/11/30 07:17:36;;;;;;;43.72;29.35;;;;;;;;;;5052145;28;20047;-77
2022/11/30 07:20:02;;;;;;;40.22;27.73;;;;;;;;;;5051587;28;20377;-77
2022/11/30 07:22:28;;;;;;;41.97;28.10;;;;;;;;;;5048136;28;20047;-77
2022/11/30 07:27:39;;;;;;;44.85;29.23;;;;;;;;;;5050946;28;20041;-78
2022/11/30 07:30:05;;;;;;;41.05;27.33;;;;;;;;;;5066631;28;20148;-77
2022/11/30 07:32:31;;;;;;;39.65;26.33;;;;;;;;;;5053476;28;20127;-77
2022/11/30 07:34:57;;;;;;;44.70;28.17;;;;;;;;;;5071406;28;20473;-77
2022/11/30 07:37:24;;;;;;;46.70;28.98;;;;;;;;;;5048995;28;20102;-77
2022/11/30 07:39:50;;;;;;;38.58;26.60;;;;;;;;;;5048446;28;20857;-77
2022/11/30 07:42:16;;;;;;;41.53;26.13;;;;;;;;;;5052215;28;20142;-77
2022/11/30 07:44:42;;;;;;;35.63;25.55;;;;;;;;;;5084893;28;20500;-77
2022/11/30 07:47:08;;;;;;;31.77;23.20;;;;;;;;;;5072128;28;20091;-76
2022/11/30 07:49:34;;;;;;;37.65;25.05;;;;;;;;;;5061486;28;20076;-77
2022/11/30 07:52:03;;;;;;;35.38;23.30;;;;;;;;;;5059777;28;20075;-76
2022/11/30 07:54:29;;;;;;;36.95;23.48;;;;;;;;;;5047539;28;20043;-77
2022/11/30 07:56:55;;;;;;;35.47;22.70;;;;;;;;;;5073195;28;20036;-76
2022/11/30 07:59:21;;;;;;;34.50;22.33;;;;;;;;;;5047788;28;20110;-77
2022/11/30 08:01:47;;;;;;;33.30;23.73;;;;;;;;;;5059498;28;20044;-77
2022/11/30 08:04:13;;;;;;;36.17;23.65;;;;;;;;;;5067440;28;20361;-77
2022/11/30 08:06:39;;;;;;;32.20;21.88;;;;;;;;;;5052537;28;20206;-77
2022/11/30 08:09:06;;;;;;;31.80;21.83;;;;;;;;;;5052871;28;20044;-77
2022/11/30 08:11:33;;;;;;;31.73;21.92;;;;;;;;;;5068162;28;20491;-77
2022/11/30 08:14:00;;;;;;;29.75;20.42;;;;;;;;;;5050328;28;20421;-77
2022/11/30 08:16:27;;;;;;;28.30;20.17;;;;;;;;;;5034776;28;20094;-78
2022/11/30 08:18:54;;;;;;;28.30;19.08;;;;;;;;;;5049604;28;20427;-77
2022/11/30 08:21:21;;;;;;;25.92;18.35;;;;;;;;;;5053684;28;20127;-77
2022/11/30 08:23:56;;;;;;;25.63;18.67;;;;;;;;;;5056592;28;20053;-77
2022/11/30 08:26:26;;;;;;;62.92;22.55;;;;;;;;;;5045403;28;20067;-77
2022/11/30 08:28:52;;;;;;;75.78;18.90;;;;;;;;;;5037209;28;20098;-77
2022/11/30 08:31:20;;;;;;;45.35;18.00;;;;;;;;;;5047222;28;20077;-77
2022/11/30 08:33:46;;;;;;;54.78;16.13;;;;;;;;;;5046338;28;20092;-77
2022/11/30 08:36:13;;;;;;;51.60;17.85;;;;;;;;;;5043221;28;20045;-77
2022/11/30 08:38:39;;;;;;;30.30;15.80;;;;;;;;;;5081624;28;20127;-77
2022/11/30 08:41:09;;;;;;;41.08;16.63;;;;;;;;;;5064296;28;20543;-77
2022/11/30 08:43:36;;;;;;;27.45;15.80;;;;;;;;;;5032102;28;20094;-77
2022/11/30 08:46:03;;;;;;;18.92;15.35;;;;;;;;;;5047208;28;20041;-77
2022/11/30 08:48:29;;;;;;;22.98;16.98;;;;;;;;;;5066319;28;20040;-78
2022/11/30 08:50:58;;;;;;;20.48;15.52;;;;;;;;;;5050903;28;20055;-77
2022/11/30 08:53:24;;;;;;;21.52;16.55;;;;;;;;;;5068559;28;20036;-77
2022/11/30 08:56:00;;;;;;;23.10;16.60;;;;;;;;;;5048884;28;20503;-77
2022/11/30 08:58:29;;;;;;;22.52;17.25;;;;;;;;;;5067073;28;20044;-78
2022/11/30 09:01:13;;;;;;;26.77;18.58;;;;;;;;;;5079083;28;20126;-77
2022/11/30 09:03:40;;;;;;;26.27;18.77;;;;;;;;;;5052034;28;20396;-78
2022/11/30 09:06:07;;;;;;;28.15;20.27;;;;;;;;;;5070543;28;20045;-77
2022/11/30 09:08:34;;;;;;;28.92;20.17;;;;;;;;;;5067665;28;20496;-77
2022/11/30 09:11:12;;;;;;;28.60;22.05;;;;;;;;;;5074536;28;20079;-77
2022/11/30 09:13:41;;;;;;;35.03;21.92;;;;;;;;;;5053755;28;20063;-77
2022/11/30 09:16:08;;;;;;;30.00;20.63;;;;;;;;;;5065149;28;20064;-77
2022/11/30 09:18:34;;;;;;;29.45;21.25;;;;;;;;;;5073090;28;20041;-77
2022/11/30 09:21:01;;;;;;;30.17;20.77;;;;;;;;;;5072981;28;20488;-77
2022/11/30 09:23:28;;;;;;;34.15;23.52;;;;;;;;;;5049435;28;20076;-77
2022/11/30 09:25:54;;;;;;;34.85;24.00;;;;;;;;;;5058239;28;20047;-77
2022/11/30 09:28:23;;;;;;;34.00;23.70;;;;;;;;;;5051511;28;20072;-78
2022/11/30 09:30:49;;;;;;;35.10;23.63;;;;;;;;;;5060726;28;20049;-77
2022/11/30 09:33:15;;;;;;;35.90;24.55;;;;;;;;;;5044756;28;20123;-77
2022/11/30 09:35:41;;;;;;;36.90;24.42;;;;;;;;;;5052621;28;20113;-77
2022/11/30 09:38:07;;;;;;;33.83;23.27;;;;;;;;;;5056829;28;20048;-77
2022/11/30 09:40:35;;;;;;;32.22;24.08;;;;;;;;;;5073226;28;20059;-77
2022/11/30 09:43:03;;;;;;;34.88;24.08;;;;;;;;;;5054264;28;20114;-77
2022/11/30 09:45:30;;;;;;;34.45;24.67;;;;;;;;;;5068601;28;20044;-77
2022/11/30 09:47:57;;;;;;;31.52;22.75;;;;;;;;;;5046112;28;20048;-78
2022/11/30 09:50:25;;;;;;;31.95;22.83;;;;;;;;;;5085708;28;20055;-78
2022/11/30 09:52:56;;;;;;;33.00;23.05;;;;;;;;;;5059376;28;20067;-77
2022/11/30 09:55:31;;;;;;;31.30;23.17;;;;;;;;;;5050508;28;20044;-77
2022/11/30 09:58:00;;;;;;;31.50;23.52;;;;;;;;;;5070723;28;20608;-77
2022/11/30 10:00:33;;;;;;;32.65;23.60;;;;;;;;;;5052421;28;20139;-77
2022/11/30 10:02:59;;;;;;;;;;;;;;;;;;5053357;28;20493;-77
2022/11/30 10:05:37;;;;;;;32.03;21.60;;;;;;;;;;5068756;28;19928;-78
2022/11/30 10:08:23;;;;;;;32.75;22.10;;;;;;;;;;5082727;28;20055;-77
2022/11/30 10:10:52;;;;;;;32.95;22.13;;;;;;;;;;5053432;28;20136;-77
2022/11/30 10:13:25;;;;;;;29.67;22.38;;;;;;;;;;5053671;28;20086;-77
2022/11/30 10:15:57;;;;;;;31.33;23.58;;;;;;;;;;5054396;28;20068;-77
2022/11/30 10:18:34;;;;;;;32.70;23.80;;;;;;;;;;5053509;28;20041;-78
2022/11/30 10:21:03;;;;;;;32.47;23.63;;;;;;;;;;5075580;28;20032;-78
2022/11/30 10:23:51;;;;;;;32.47;23.98;;;;;;;;;;5052273;28;20530;-78
2022/11/30 10:26:22;;;;;;;39.30;25.67;;;;;;;;;;5071762;28;20051;-77
2022/11/30 10:28:57;;;;;;;35.47;24.80;;;;;;;;;;5054985;28;20044;-78
2022/11/30 10:31:32;;;;;;;34.17;24.98;;;;;;;;;;5053826;28;20037;-78
2022/11/30 10:34:03;;;;;;;36.03;25.63;;;;;;;;;;5054588;28;20032;-77
2022/11/30 10:36:41;;;;;;;36.97;26.00;;;;;;;;;;5053523;28;20431;-78
2022/11/30 10:39:30;;;;;;;38.45;26.40;;;;;;;;;;5050412;28;20045;-78
2022/11/30 10:42:01;;;;;;;38.45;26.42;;;;;;;;;;5047876;28;20044;-77
2022/11/30 10:44:29;;;;;;;40.60;27.35;;;;;;;;;;5072078;28;20131;-78
2022/11/30 10:46:59;;;;;;;41.95;27.02;;;;;;;;;;5053905;28;20040;-78
2022/11/30 10:49:27;;;;;;;41.42;28.13;;;;;;;;;;5053271;28;20048;-77
2022/11/30 10:51:56;;;;;;;40.60;28.10;;;;;;;;;;5052880;28;20511;-78
2022/11/30 10:54:23;;;;;;;40.17;28.23;;;;;;;;;;5051515;28;20044;-78
2022/11/30 10:56:49;;;;;;;43.45;28.90;;;;;;;;;;5054981;28;20105;-78
2022/11/30 10:59:21;;;;;;;38.47;28.63;;;;;;;;;;5050000;28;20060;-78
2022/11/30 11:01:47;;;;;;;41.10;28.75;;;;;;;;;;5053606;28;20109;-78
2022/11/30 11:04:15;;;;;;;44.90;30.40;;;;;;;;;;5044957;28;20433;-78
2022/11/30 11:06:45;;;;;;;41.22;28.10;;;;;;;;;;5052431;28;20040;-78
2022/11/30 11:09:29;;;;;;;42.00;29.33;;;;;;;;;;5072632;28;20097;-78
2022/11/30 11:12:03;;;;;;;38.92;26.98;;;;;;;;;;5056759;28;20494;-78
2022/11/30 11:14:29;;;;;;;43.17;28.63;;;;;;;;;;5048484;28;20052;-78
2022/11/30 11:16:55;;;;;;;44.03;28.85;;;;;;;;;;5052321;28;20048;-78
2022/11/30 11:19:23;;;;;;;42.83;27.52;;;;;;;;;;5070938;28;20032;-78
2022/11/30 11:21:50;;;;;;;39.25;27.27;;;;;;;;;;5052568;28;20090;-78
2022/11/30 11:24:19;;;;;;;39.53;27.67;;;;;;;;;;5071204;28;20040;-76
2022/11/30 11:26:49;;;;;;;40.13;27.67;;;;;;;;;;5070450;28;20462;-76
2022/11/30 11:29:34;;;;;;;44.47;28.35;;;;;;;;;;5068924;28;20048;-76
2022/11/30 11:32:19;;;;;;;39.78;27.05;;;;;;;;;;5047635;28;20052;-76
2022/11/30 11:34:52;;;;;;;40.42;27.58;;;;;;;;;;5045044;28;20391;-79
2022/11/30 11:37:25;;;;;;;39.40;27.03;;;;;;;;;;5049835;28;20041;-79
2022/11/30 11:40:09;;;;;;;41.72;28.80;;;;;;;;;;5046386;28;20078;-78
2022/11/30 11:42:40;;;;;;;38.58;26.00;;;;;;;;;;5052094;28;20059;-79
2022/11/30 11:45:14;;;;;;;38.95;27.67;;;;;;;;;;5069002;28;20072;-79
2022/11/30 11:47:43;;;;;;;34.92;25.83;;;;;;;;;;5073601;28;20488;-78
2022/11/30 11:50:15;;;;;;;35.05;25.77;;;;;;;;;;5046213;28;20140;-78
2022/11/30 11:52:42;;;;;;;34.53;24.20;;;;;;;;;;5047561;28;20052;-79
2022/11/30 11:55:13;;;;;;;35.55;26.55;;;;;;;;;;5064982;28;20125;-80
2022/11/30 11:57:52;;;;;;;35.58;25.65;;;;;;;;;;5083918;28;20041;-80
2022/11/30 12:00:24;;;;;;;32.88;22.77;;;;;;;;;;5062385;28;20045;-77
2022/11/30 12:02:59;;;;;;;34.92;23.27;;;;;;;;;;5066614;28;20055;-77
2022/11/30 12:05:42;;;;;;;34.33;23.17;;;;;;;;;;5082090;28;20484;-79
2022/11/30 12:08:08;;;;;;;34.83;23.95;;;;;;;;;;5067331;28;20210;-80
2022/11/30 12:10:43;;;;;;;31.63;22.73;;;;;;;;;;5063677;28;20127;-80
2022/11/30 12:13:12;;;;;;;28.83;21.67;;;;;;;;;;5053689;28;20040;-80
2022/11/30 12:15:56;;;;;;;27.67;21.83;;;;;;;;;;5046196;28;20055;-78
2022/11/30 12:18:24;;;;;;;31.13;23.48;;;;;;;;;;5039636;28;20048;-79
2022/11/30 12:20:56;;;;;;;34.33;23.77;;;;;;;;;;5068768;28;20094;-79
2022/11/30 12:23:30;;;;;;;28.98;21.80;;;;;;;;;;5081960;28;20041;-79
2022/11/30 12:25:56;;;;;;;30.08;21.88;;;;;;;;;;5051773;28;20044;-79
2022/11/30 12:28:28;;;;;;;32.45;22.30;;;;;;;;;;5048606;28;20522;-80
2022/11/30 12:31:00;;;;;;;31.95;20.85;;;;;;;;;;5068251;28;20048;-77
2022/11/30 12:33:38;;;;;;;34.45;22.70;;;;;;;;;;5052718;28;20144;-76
2022/11/30 12:36:16;;;;;;;29.10;21.95;;;;;;;;;;5067588;28;20049;-76
2022/11/30 12:38:49;;;;;;;34.13;21.70;;;;;;;;;;5051239;28;20075;-76
2022/11/30 12:41:30;;;;;;;32.15;21.55;;;;;;;;;;5049856;28;20056;-77
2022/11/30 12:44:03;;;;;;;26.08;19.60;;;;;;;;;;5070961;28;20041;-76
2022/11/30 12:46:29;;;;;;;28.65;20.35;;;;;;;;;;5049961;28;20120;-76
2022/11/30 12:49:10;;;;;;;26.25;20.38;;;;;;;;;;5070395;28;20047;-76
2022/11/30 12:51:55;;;;;;;24.52;18.67;;;;;;;;;;5069018;28;20059;-76
2022/11/30 12:54:26;;;;;;;25.85;18.60;;;;;;;;;;5050350;28;20144;-76
2022/11/30 12:57:15;;;;;;;26.10;19.42;;;;;;;;;;5068512;28;20033;-76
2022/11/30 12:59:48;;;;;;;29.00;19.42;;;;;;;;;;5061963;28;20045;-77
2022/11/30 13:02:32;;;;;;;24.15;17.90;;;;;;;;;;5054017;28;20151;-77
2022/11/30 13:05:02;;;;;;;27.88;18.67;;;;;;;;;;5048871;28;20057;-77
2022/11/30 13:07:32;;;;;;;27.25;19.15;;;;;;;;;;5067921;28;21238;-77
2022/11/30 13:10:00;;;;;;;24.10;18.52;;;;;;;;;;5046977;28;20514;-77
2022/11/30 13:12:36;;;;;;;24.02;18.35;;;;;;;;;;5050715;28;20052;-77
2022/11/30 13:15:09;;;;;;;20.88;17.45;;;;;;;;;;5069501;28;20598;-76
2022/11/30 13:17:42;;;;;;;22.23;18.05;;;;;;;;;;5051543;28;20040;-76
2022/11/30 13:20:17;;;;;;;24.00;18.47;;;;;;;;;;5050507;28;20436;-76
2022/11/30 13:22:49;;;;;;;24.80;18.65;;;;;;;;;;5075933;28;20129;-76
2022/11/30 13:25:22;;;;;;;22.15;18.45;;;;;;;;;;5049534;28;20040;-76
2022/11/30 13:27:56;;;;;;;24.95;19.17;;;;;;;;;;5041470;28;20041;-76
2022/11/30 13:30:36;;;;;;;22.52;18.50;;;;;;;;;;5082076;28;20117;-77
2022/11/30 13:33:20;;;;;;;26.40;20.15;;;;;;;;;;5068903;28;20340;-77
2022/11/30 13:35:53;;;;;;;24.77;19.15;;;;;;;;;;5051189;28;20412;-76
2022/11/30 13:38:20;;;;;;;24.30;20.08;;;;;;;;;;5068525;28;20098;-77
2022/11/30 13:41:06;;;;;;;24.40;20.42;;;;;;;;;;5065842;28;20335;-77
2022/11/30 13:43:43;;;;;;;28.30;20.13;;;;;;;;;;5047461;28;20049;-77
2022/11/30 13:46:20;;;;;;;25.83;19.40;;;;;;;;;;5046919;28;20064;-76
2022/11/30 13:48:46;;;;;;;24.55;19.60;;;;;;;;;;5064006;28;20048;-76
2022/11/30 13:51:12;;;;;;;27.50;20.42;;;;;;;;;;5067638;28;20048;-75
2022/11/30 13:53:39;;;;;;;26.20;20.20;;;;;;;;;;5050128;28;20071;-76
2022/11/30 13:56:06;;;;;;;25.73;20.80;;;;;;;;;;5065699;28;20577;-76
2022/11/30 13:58:33;;;;;;;25.27;20.10;;;;;;;;;;5081482;28;20484;-77
2022/11/30 14:01:17;;;;;;;25.95;19.35;;;;;;;;;;5073418;28;20055;-76
2022/11/30 14:03:44;;;;;;;26.83;21.48;;;;;;;;;;5046854;28;20087;-77
2022/11/30 14:06:29;;;;;;;27.70;21.02;;;;;;;;;;5083609;28;20452;-77
2022/11/30 14:08:55;;;;;;;29.23;21.58;;;;;;;;;;5071652;28;20043;-77
2022/11/30 14:11:41;;;;;;;26.02;20.48;;;;;;;;;;5054103;28;20395;-77
2022/11/30 14:14:25;;;;;;;26.08;21.13;;;;;;;;;;5070215;28;20082;-77
2022/11/30 14:16:52;;;;;;;28.00;21.70;;;;;;;;;;5072232;28;20442;-77
2022/11/30 14:19:18;;;;;;;27.52;21.10;;;;;;;;;;5070149;28;20193;-76
2022/11/30 14:21:44;;;;;;;27.92;20.88;;;;;;;;;;5073267;28;20037;-77
2022/11/30 14:24:17;;;;;;;27.83;21.40;;;;;;;;;;5052781;28;20434;-77
2022/11/30 14:26:45;;;;;;;28.88;21.48;;;;;;;;;;5047196;28;20055;-77
2022/11/30 14:29:17;;;;;;;28.23;20.95;;;;;;;;;;5080382;28;20039;-77
2022/11/30 14:31:56;;;;;;;29.75;21.92;;;;;;;;;;5051533;28;20049;-77